Time;durP1;ratioP1;P1;durP2;ratioP2;P2;SDS_P1;SDS_P2;PMS_P1;PMS_P2;Temp;Humidity;BMP_temperature;BMP_pressure;BME280_temperature;BME280_humidity;BME280_pressure;Samples;Min_cycle;Max_cycle;Signal;HPM_P1;HPM_P2
2023/06/09 00:00:48;;;;;;;;;15.00;12.00;;;;;21.36;59.15;100975.81;5038171;28;45330;-67
2023/06/09 00:03:16;;;;;;;;;14.67;12.33;;;;;21.37;58.74;100980.22;5038042;28;45246;-67
2023/06/09 00:05:42;;;;;;;;;15.00;14.67;;;;;21.34;59.06;100983.13;5037980;28;45370;-68
2023/06/09 00:08:07;;;;;;;;;18.33;15.67;;;;;21.26;59.36;100972.03;5037479;28;45249;-67
2023/06/09 00:10:32;;;;;;;;;14.33;14.33;;;;;21.27;59.22;100976.44;5038112;28;45733;-67
2023/06/09 00:12:58;;;;;;;;;16.67;15.67;;;;;21.19;58.94;100961.72;5038264;28;45406;-68
2023/06/09 00:15:23;;;;;;;;;22.33;18.00;;;;;21.25;59.29;100964.94;5037722;28;45413;-68
2023/06/09 00:17:49;;;;;;;;;19.67;15.00;;;;;21.11;59.87;100953.31;5038117;28;45422;-67
2023/06/09 00:20:14;;;;;;;;;10.00;8.67;;;;;21.17;58.86;100960.97;5037933;28;45448;-67
2023/06/09 00:22:43;;;;;;;;;14.67;13.00;;;;;21.08;59.82;100958.84;5037485;28;45594;-67
2023/06/09 00:25:16;;;;;;;;;15.00;13.67;;;;;21.10;60.12;100964.13;5037522;28;47290;-67
2023/06/09 00:27:45;;;;;;;;;18.00;17.33;;;;;21.08;60.09;100960.69;5037248;28;45313;-67
2023/06/09 00:30:14;;;;;;;;;16.33;13.33;;;;;21.07;59.98;100949.09;5025535;28;45286;-67
2023/06/09 00:32:41;;;;;;;;;17.33;15.67;;;;;21.07;60.33;100957.13;5018012;28;45365;-67
2023/06/09 00:35:06;;;;;;;;;17.33;14.67;;;;;21.07;60.61;100950.94;5017558;28;45920;-67
2023/06/09 00:37:32;;;;;;;;;15.00;14.00;;;;;21.05;60.20;100959.91;5023405;28;45517;-67
2023/06/09 00:39:57;;;;;;;;;16.00;13.67;;;;;21.03;60.53;100958.31;5037658;28;45218;-67
2023/06/09 00:42:23;;;;;;;;;19.67;15.00;;;;;20.98;60.30;100947.88;5037693;28;45309;-67
2023/06/09 00:44:49;;;;;;;;;14.67;13.67;;;;;21.00;59.82;100959.34;5037034;28;46249;-68
2023/06/09 00:47:14;;;;;;;;;17.00;15.33;;;;;20.99;60.66;100951.41;5037425;28;45508;-67
2023/06/09 00:49:40;;;;;;;;;16.33;16.33;;;;;20.93;60.55;100946.47;5036393;28;45558;-67
2023/06/09 00:52:06;;;;;;;;;13.00;13.00;;;;;20.99;60.11;100957.63;5033855;28;45647;-67
2023/06/09 00:54:31;;;;;;;;;14.00;13.00;;;;;20.93;60.61;100947.31;5023856;28;46463;-67
2023/06/09 00:56:57;;;;;;;;;18.00;15.33;;;;;20.79;61.09;100928.59;5034930;28;45285;-67
2023/06/09 00:59:25;;;;;;;;;14.33;14.00;;;;;20.87;60.80;100942.34;5037351;28;45839;-67
2023/06/09 01:01:51;;;;;;;;;16.67;13.67;;;;;20.73;61.39;100916.44;5037342;28;45377;-67
2023/06/09 01:04:16;;;;;;;;;18.33;16.00;;;;;20.81;61.26;100940.91;5037150;28;45344;-67
2023/06/09 01:07:08;;;;;;;;;20.00;13.67;;;;;20.77;61.20;100936.72;5036163;28;45567;-67
2023/06/09 01:09:41;;;;;;;;;17.00;14.33;;;;;20.75;61.48;100938.59;5023230;28;45259;-67
2023/06/09 01:12:14;;;;;;;;;17.00;13.33;;;;;20.74;61.53;100942.25;5037389;28;45322;-67
2023/06/09 01:15:27;;;;;;;;;15.33;15.33;;;;;20.73;61.49;100943.22;5036768;28;45411;-67
2023/06/09 01:17:58;;;;;;;;;19.67;15.33;;;;;20.66;61.55;100928.44;5034885;28;45353;-67
2023/06/09 01:20:46;;;;;;;;;16.67;15.00;;;;;20.60;61.30;100918.16;5034871;28;45311;-67
2023/06/09 01:23:51;;;;;;;;;12.67;12.33;;;;;20.67;62.13;100933.75;5035198;28;45382;-67
2023/06/09 01:26:17;;;;;;;;;14.33;12.33;;;;;20.60;61.90;100928.84;5034770;28;46198;-67
2023/06/09 01:28:44;;;;;;;;;16.33;15.00;;;;;20.59;62.20;100919.94;5034460;28;45528;-66
2023/06/09 01:31:15;;;;;;;;;15.00;12.33;;;;;20.51;61.91;100915.06;5034541;28;45312;-67
2023/06/09 01:33:42;;;;;;;;;15.33;15.33;;;;;20.50;62.25;100912.50;5034803;28;45444;-68
2023/06/09 01:36:08;;;;;;;;;18.33;15.33;;;;;20.51;62.77;100919.56;5034468;28;46108;-67
2023/06/09 01:38:33;;;;;;;;;17.33;15.00;;;;;20.50;62.46;100920.53;5034236;28;45457;-67
2023/06/09 01:40:59;;;;;;;;;19.00;16.00;;;;;20.48;62.45;100920.63;5034215;28;45414;-67
2023/06/09 01:43:24;;;;;;;;;15.33;15.33;;;;;20.45;61.47;100918.13;5034695;28;45463;-67
2023/06/09 01:45:50;;;;;;;;;14.67;13.33;;;;;20.45;63.01;100923.50;5034555;28;46078;-67
2023/06/09 01:48:24;;;;;;;;;15.33;13.67;;;;;20.41;62.06;100913.94;5035342;28;45349;-68
2023/06/09 01:50:56;;;;;;;;;16.33;16.33;;;;;20.38;61.76;100916.78;5036284;28;45302;-67
2023/06/09 01:53:28;;;;;;;;;18.33;16.33;;;;;20.33;62.93;100913.53;5036828;28;45413;-67
2023/06/09 01:56:01;;;;;;;;;15.00;14.33;;;;;20.29;63.13;100917.38;5036611;28;45501;-67
2023/06/09 01:58:33;;;;;;;;;13.67;13.67;;;;;20.28;63.54;100913.81;5036658;28;45502;-67
2023/06/09 02:01:00;;;;;;;;;13.00;13.00;;;;;20.24;63.31;100904.25;5036482;28;45401;-68
2023/06/09 02:03:30;;;;;;;;;20.33;17.33;;;;;20.24;63.24;100911.44;5034408;28;45207;-67
2023/06/09 02:05:57;;;;;;;;;19.00;16.00;;;;;20.23;63.62;100910.56;5034683;28;46420;-67
2023/06/09 02:08:22;;;;;;;;;14.67;14.33;;;;;20.25;63.37;100911.31;5036066;28;45408;-67
2023/06/09 02:10:48;;;;;;;;;22.00;17.00;;;;;20.20;63.09;100896.50;5036526;28;45240;-67
2023/06/09 02:13:19;;;;;;;;;19.00;18.00;;;;;20.15;63.48;100894.13;5039135;28;45333;-67
2023/06/09 02:15:46;;;;;;;;;14.33;12.67;;;;;20.23;63.60;100905.22;5039166;28;45613;-67
2023/06/09 02:18:15;;;;;;;;;17.67;15.67;;;;;20.01;63.75;100881.59;5028797;28;46923;-67
2023/06/09 02:20:42;;;;;;;;;16.67;15.33;;;;;20.15;63.37;100900.31;5019636;28;45484;-67
2023/06/09 02:23:08;;;;;;;;;19.33;16.67;;;;;20.16;63.70;100904.72;5028783;28;45445;-67
2023/06/09 02:25:33;;;;;;;;;16.00;15.33;;;;;20.13;63.77;100906.75;5033631;28;45328;-67
2023/06/09 02:28:02;;;;;;;;;17.67;17.00;;;;;20.08;64.03;100908.81;5032339;28;45419;-67
2023/06/09 02:30:27;;;;;;;;;16.67;15.33;;;;;19.86;63.51;100863.81;5039738;28;45392;-67
2023/06/09 02:32:55;;;;;;;;;22.67;17.00;;;;;20.02;64.05;100893.16;5039798;28;45294;-67
2023/06/09 02:35:20;;;;;;;;;20.00;18.33;;;;;19.95;63.62;100885.50;5036340;28;46400;-67
2023/06/09 02:37:46;;;;;;;;;23.00;15.33;;;;;19.95;64.34;100887.31;5019510;28;45390;-68
2023/06/09 02:40:12;;;;;;;;;15.00;15.00;;;;;19.93;64.15;100887.41;5019558;28;45401;-68
2023/06/09 02:42:38;;;;;;;;;23.00;18.00;;;;;19.83;64.25;100870.19;5031664;28;45379;-67
2023/06/09 02:45:06;;;;;;;;;20.67;20.67;;;;;19.96;64.28;100897.06;5039088;28;46505;-67
2023/06/09 02:47:31;;;;;;;;;18.00;17.00;;;;;19.92;64.56;100896.34;5039257;28;45259;-68
2023/06/09 02:49:57;;;;;;;;;24.00;17.67;;;;;19.86;64.73;100887.88;5039144;28;45395;-67
2023/06/09 02:52:22;;;;;;;;;18.67;15.33;;;;;19.81;64.01;100883.66;5038995;28;45216;-67
2023/06/09 02:54:47;;;;;;;;;22.33;15.67;;;;;19.87;64.69;100898.47;5033096;28;45741;-67
2023/06/09 02:57:13;;;;;;;;;20.00;17.67;;;;;19.85;64.66;100891.47;5019149;28;45482;-67
2023/06/09 02:59:39;;;;;;;;;19.67;18.33;;;;;19.75;65.13;100892.00;5019411;28;45267;-67
2023/06/09 03:02:05;;;;;;;;;18.33;16.67;;;;;19.72;65.22;100900.22;5019369;28;45473;-67
2023/06/09 03:04:31;;;;;;;;;20.33;15.33;;;;;19.45;65.39;100858.13;5035162;28;45442;-67
2023/06/09 03:06:56;;;;;;;;;16.67;15.33;;;;;19.70;64.96;100909.25;5038795;28;45716;-67
2023/06/09 03:09:22;;;;;;;;;20.33;17.67;;;;;19.63;65.69;100900.72;5039212;28;45205;-67
2023/06/09 03:11:47;;;;;;;;;19.67;18.00;;;;;19.67;65.21;100908.47;5039120;28;45782;-67
2023/06/09 03:14:13;;;;;;;;;16.67;14.67;;;;;19.64;65.77;100903.31;5038914;28;46300;-67
2023/06/09 03:16:38;;;;;;;;;16.00;13.67;;;;;19.63;65.43;100903.41;5038623;28;45400;-67
2023/06/09 03:19:05;;;;;;;;;24.00;17.33;;;;;19.62;65.73;100901.66;5038700;28;45484;-67
2023/06/09 03:21:35;;;;;;;;;17.33;14.67;;;;;19.60;65.61;100896.41;5038789;28;45324;-67
2023/06/09 03:24:05;;;;;;;;;19.00;18.00;;;;;19.57;65.47;100890.41;5038203;28;46534;-67
2023/06/09 03:26:31;;;;;;;;;17.67;17.00;;;;;19.62;65.64;100910.56;5038669;28;45404;-67
2023/06/09 03:28:57;;;;;;;;;15.00;14.67;;;;;19.61;65.32;100908.84;5037478;28;45713;-67
2023/06/09 03:31:22;;;;;;;;;22.67;19.00;;;;;19.56;65.82;100904.69;5019682;28;45361;-67
2023/06/09 03:33:47;;;;;;;;;19.67;15.67;;;;;19.56;65.95;100907.38;5018746;28;46500;-67
2023/06/09 03:36:13;;;;;;;;;21.33;18.67;;;;;19.55;66.24;100914.53;5018517;28;45386;-67
2023/06/09 03:38:38;;;;;;;;;19.33;18.00;;;;;19.48;65.95;100906.00;5019057;28;45407;-67
2023/06/09 03:41:03;;;;;;;;;17.00;17.00;;;;;19.45;65.77;100898.19;5038530;28;45503;-67
2023/06/09 03:43:29;;;;;;;;;28.33;23.67;;;;;19.52;66.00;100909.38;5038358;28;45440;-67
2023/06/09 03:45:55;;;;;;;;;17.00;16.33;;;;;19.54;66.41;100914.63;5038499;28;45231;-67
2023/06/09 03:48:20;;;;;;;;;18.00;15.33;;;;;19.52;66.17;100916.50;5038451;28;45310;-67
2023/06/09 03:50:46;;;;;;;;;17.67;17.33;;;;;19.46;65.80;100899.91;5038446;28;45290;-67
2023/06/09 03:53:11;;;;;;;;;20.67;17.33;;;;;19.44;66.54;100907.13;5038054;28;46311;-67
2023/06/09 03:55:38;;;;;;;;;21.00;15.67;;;;;19.41;65.81;100899.28;5035369;28;45239;-67
2023/06/09 03:58:04;;;;;;;;;25.33;19.67;;;;;19.38;66.33;100898.63;5018309;28;45381;-67
2023/06/09 04:00:29;;;;;;;;;21.00;18.67;;;;;19.41;66.23;100909.97;5018373;28;45389;-67
2023/06/09 04:02:55;;;;;;;;;18.33;18.33;;;;;19.42;66.01;100916.19;5018079;28;45508;-67
2023/06/09 04:05:21;;;;;;;;;16.67;15.33;;;;;19.41;66.17;100914.47;5027437;28;45267;-67
2023/06/09 04:07:46;;;;;;;;;20.00;20.00;;;;;19.43;66.17;100912.56;5027539;28;45425;-67
2023/06/09 04:10:12;;;;;;;;;21.00;18.67;;;;;19.40;66.50;100902.06;5018130;28;45433;-67
2023/06/09 04:12:38;;;;;;;;;25.33;23.67;;;;;19.45;66.17;100908.84;5036706;28;46089;-67
2023/06/09 04:15:06;;;;;;;;;18.67;18.67;;;;;19.43;66.51;100902.75;5038151;28;45282;-67
2023/06/09 04:17:32;;;;;;;;;23.00;19.33;;;;;19.40;65.62;100910.06;5037925;28;45256;-67
2023/06/09 04:19:57;;;;;;;;;19.00;18.33;;;;;19.43;66.29;100910.78;5037927;28;45418;-67
2023/06/09 04:22:23;;;;;;;;;18.67;18.00;;;;;19.43;65.89;100912.56;5033777;28;46189;-67
2023/06/09 04:24:48;;;;;;;;;21.00;20.00;;;;;19.40;66.37;100913.63;5017849;28;45402;-67
2023/06/09 04:27:15;;;;;;;;;23.00;19.00;;;;;19.42;65.68;100916.19;5035516;28;45666;-67
2023/06/09 04:29:41;;;;;;;;;23.33;19.67;;;;;19.45;66.27;100924.03;5038119;28;45369;-67
2023/06/09 04:32:07;;;;;;;;;19.67;19.33;;;;;19.37;66.22;100911.09;5037571;28;46210;-67
2023/06/09 04:34:38;;;;;;;;;20.00;18.00;;;;;19.47;65.71;100917.66;5037248;28;45633;-68
2023/06/09 04:37:07;;;;;;;;;25.00;18.67;;;;;19.46;66.19;100907.03;5037455;28;45323;-67
2023/06/09 04:39:32;;;;;;;;;17.00;15.67;;;;;19.51;65.81;100920.16;5037753;28;45512;-67
2023/06/09 04:42:03;;;;;;;;;25.00;19.67;;;;;19.50;65.93;100916.59;5036155;28;46120;-67
2023/06/09 04:44:28;;;;;;;;;16.67;14.67;;;;;19.51;65.16;100922.81;5021108;28;45291;-65
2023/06/09 04:46:54;;;;;;;;;18.33;16.67;;;;;19.54;64.93;100933.31;5023096;28;45404;-67
2023/06/09 04:49:20;;;;;;;;;25.00;22.00;;;;;19.52;65.32;100932.53;5046943;28;45497;-68
2023/06/09 04:51:47;;;;;;;;;23.00;20.00;;;;;19.57;65.36;100943.84;5054146;28;46275;-67
2023/06/09 04:54:17;;;;;;;;;22.33;18.00;;;;;19.51;65.59;100928.16;5038192;28;45420;-68
2023/06/09 04:56:44;;;;;;;;;25.33;20.67;;;;;19.48;65.33;100929.19;5037421;28;45500;-67
2023/06/09 04:59:13;;;;;;;;;22.67;19.67;;;;;19.46;65.73;100926.63;5055070;28;45420;-67
2023/06/09 05:01:39;;;;;;;;;19.00;18.33;;;;;19.56;65.69;100945.66;5036903;28;45301;-68
2023/06/09 05:04:07;;;;;;;;;20.67;17.67;;;;;19.57;65.38;100936.66;5037151;28;45217;-68
2023/06/09 05:06:33;;;;;;;;;26.67;21.00;;;;;19.56;64.93;100934.97;5036865;28;45409;-68
2023/06/09 05:08:58;;;;;;;;;24.67;22.67;;;;;19.59;64.51;100947.25;5037885;28;46565;-68
2023/06/09 05:11:24;;;;;;;;;23.00;18.00;;;;;19.49;64.79;100925.59;5036664;28;46385;-67
2023/06/09 05:13:49;;;;;;;;;21.67;20.33;;;;;19.57;65.54;100935.81;5046875;28;45491;-68
2023/06/09 05:16:15;;;;;;;;;23.33;23.00;;;;;19.62;65.21;100942.63;5055631;28;45451;-68
2023/06/09 05:18:41;;;;;;;;;23.67;23.67;;;;;19.71;65.18;100951.91;5029430;28;45432;-67
2023/06/09 05:21:07;;;;;;;;;25.33;22.33;;;;;19.55;64.95;100897.66;5025156;28;47420;-68
2023/06/09 05:23:33;;;;;;;;;24.00;21.33;;;;;19.87;64.82;100941.22;5030022;28;45442;-68
2023/06/09 05:25:59;;;;;;;;;23.33;21.67;;;;;19.92;64.37;100943.63;5036919;28;45326;-68
2023/06/09 05:28:25;;;;;;;;;25.33;20.33;;;;;19.95;64.21;100938.09;5056990;28;45478;-67
2023/06/09 05:30:50;;;;;;;;;30.67;25.67;;;;;19.98;63.96;100943.25;5056962;28;45292;-68
2023/06/09 05:33:15;;;;;;;;;26.67;23.67;;;;;19.77;64.57;100910.63;5041309;28;46084;-68
2023/06/09 05:35:41;;;;;;;;;25.67;21.67;;;;;20.03;63.83;100949.19;5027403;28;45294;-68
2023/06/09 05:38:07;;;;;;;;;28.33;25.00;;;;;20.07;64.14;100953.41;5027465;28;45492;-68
2023/06/09 05:40:33;;;;;;;;;26.00;22.67;;;;;20.10;64.32;100949.66;5036611;28;46579;-68
2023/06/09 05:42:58;;;;;;;;;23.00;23.00;;;;;20.10;64.18;100950.56;5035941;28;45454;-68
2023/06/09 05:45:23;;;;;;;;;29.00;26.00;;;;;20.06;63.86;100941.00;5036560;28;45360;-67
2023/06/09 05:47:50;;;;;;;;;30.00;27.00;;;;;20.18;64.25;100950.94;5038834;28;45484;-67
2023/06/09 05:50:16;;;;;;;;;25.67;24.33;;;;;20.22;63.76;100964.16;5039849;28;46258;-68
2023/06/09 05:52:42;;;;;;;;;25.67;24.00;;;;;20.21;63.87;100954.41;5038958;28;45344;-67
2023/06/09 05:55:07;;;;;;;;;23.67;17.67;;;;;20.25;63.93;100956.78;5040738;28;45298;-68
2023/06/09 05:57:33;;;;;;;;;28.33;26.00;;;;;20.31;63.69;100944.88;5038805;28;45487;-67
2023/06/09 05:59:59;;;;;;;;;24.00;24.00;;;;;20.40;63.37;100946.97;5020759;28;46309;-67
2023/06/09 06:02:24;;;;;;;;;31.00;25.67;;;;;20.40;62.69;100940.75;5019967;28;45319;-67
2023/06/09 06:04:50;;;;;;;;;25.00;23.67;;;;;20.47;62.87;100945.63;5020079;28;45828;-68
2023/06/09 06:07:17;;;;;;;;;34.67;30.00;;;;;20.36;63.14;100910.69;5020162;28;45222;-67
2023/06/09 06:09:43;;;;;;;;;24.67;23.67;;;;;20.63;62.63;100950.06;5019901;28;46229;-67
2023/06/09 06:12:08;;;;;;;;;31.00;25.00;;;;;20.72;62.30;100954.84;5019846;28;45458;-67
2023/06/09 06:14:33;;;;;;;;;26.00;26.00;;;;;20.69;61.97;100947.03;5020131;28;45883;-67
2023/06/09 06:16:59;;;;;;;;;27.00;26.33;;;;;20.73;62.11;100945.88;5020071;28;45315;-68
2023/06/09 06:19:24;;;;;;;;;28.67;25.67;;;;;20.99;61.62;100962.97;5019721;28;45570;-67
2023/06/09 06:21:50;;;;;;;;;27.00;26.33;;;;;21.09;60.95;100952.56;5019901;28;45498;-68
2023/06/09 06:24:15;;;;;;;;;26.67;24.67;;;;;21.08;60.84;100950.81;5020960;28;45308;-67
2023/06/09 06:26:41;;;;;;;;;27.33;25.33;;;;;21.04;60.40;100952.84;5041577;28;45456;-68
2023/06/09 06:29:06;;;;;;;;;26.00;21.67;;;;;21.04;60.80;100951.97;5039015;28;46542;-68
2023/06/09 06:31:31;;;;;;;;;25.67;25.67;;;;;21.11;60.59;100950.63;5039260;28;45382;-67
2023/06/09 06:33:58;;;;;;;;;28.00;25.67;;;;;21.16;60.17;100958.34;5039520;28;45788;-68
2023/06/09 06:36:24;;;;;;;;;28.33;25.67;;;;;21.21;60.45;100959.78;5038701;28;45511;-68
2023/06/09 06:38:50;;;;;;;;;30.67;26.67;;;;;21.19;60.70;100953.69;5039242;28;45476;-68
2023/06/09 06:41:15;;;;;;;;;25.67;22.00;;;;;21.20;60.00;100938.47;5039018;28;45309;-67
2023/06/09 06:43:41;;;;;;;;;27.33;26.33;;;;;21.36;60.38;100949.91;5039266;28;45401;-67
2023/06/09 06:46:07;;;;;;;;;33.00;27.00;;;;;21.40;59.87;100953.25;5039431;28;45270;-68
2023/06/09 06:48:32;;;;;;;;;27.33;22.33;;;;;21.45;59.82;100960.97;5038967;28;46859;-68
2023/06/09 06:50:58;;;;;;;;;28.00;23.67;;;;;21.47;59.35;100951.88;5039161;28;45459;-67
2023/06/09 06:53:25;;;;;;;;;30.00;26.67;;;;;21.55;58.81;100965.69;5039098;28;45432;-67
2023/06/09 06:55:50;;;;;;;;;27.00;24.00;;;;;21.63;58.92;100959.81;5039221;28;45323;-67
2023/06/09 06:58:16;;;;;;;;;23.00;23.00;;;;;21.61;59.04;100944.78;5038641;28;46214;-67
2023/06/09 07:00:41;;;;;;;;;30.00;24.00;;;;;21.55;58.82;100924.63;5038974;28;45319;-68
2023/06/09 07:03:09;;;;;;;;;30.00;27.00;;;;;21.81;58.53;100965.75;5039068;28;45257;-68
2023/06/09 07:05:35;;;;;;;;;28.33;23.67;;;;;21.82;58.95;100951.41;5039239;28;45436;-68
2023/06/09 07:08:01;;;;;;;;;26.67;22.67;;;;;21.94;58.04;100962.28;5038510;28;45830;-68
2023/06/09 07:10:26;;;;;;;;;23.00;23.00;;;;;22.04;57.88;100958.84;5039083;28;45411;-68
2023/06/09 07:12:51;;;;;;;;;24.00;24.00;;;;;22.22;57.82;100962.13;5038976;28;45301;-67
2023/06/09 07:15:17;;;;;;;;;26.33;22.67;;;;;22.40;57.62;100961.84;5039344;28;45310;-68
2023/06/09 07:17:43;;;;;;;;;31.67;26.67;;;;;22.86;56.53;100950.56;5038912;28;45242;-68
2023/06/09 07:20:10;;;;;;;;;29.00;24.33;;;;;24.06;53.48;100962.41;5038791;28;45345;-68
2023/06/09 07:22:39;;;;;;;;;26.67;21.67;;;;;24.10;52.38;100971.13;5038777;28;45530;-67
2023/06/09 07:25:04;;;;;;;;;23.33;21.33;;;;;23.97;51.98;100946.97;5038732;28;45259;-68
2023/06/09 07:27:30;;;;;;;;;27.00;23.67;;;;;24.13;51.98;100976.25;5038513;28;46455;-68
2023/06/09 07:29:56;;;;;;;;;22.33;20.67;;;;;24.42;51.36;100975.84;5038600;28;45207;-68
2023/06/09 07:32:21;;;;;;;;;23.33;18.67;;;;;24.24;50.97;100956.56;5038573;28;45308;-68
2023/06/09 07:34:47;;;;;;;;;21.67;20.00;;;;;24.06;51.35;100973.16;5038835;28;45437;-68
2023/06/09 07:37:12;;;;;;;;;23.00;21.33;;;;;24.03;51.76;100965.34;5038359;28;46481;-68
2023/06/09 07:39:38;;;;;;;;;20.00;19.00;;;;;23.94;51.56;100960.66;5038526;28;45415;-68
2023/06/09 07:42:03;;;;;;;;;21.67;21.33;;;;;23.86;51.83;100974.69;5038497;28;45270;-67
2023/06/09 07:44:29;;;;;;;;;23.67;21.00;;;;;23.79;51.93;100973.41;5038695;28;45323;-68
2023/06/09 07:46:54;;;;;;;;;20.33;20.33;;;;;23.77;51.34;100980.72;5038313;28;47239;-68
2023/06/09 07:49:19;;;;;;;;;22.67;21.33;;;;;23.72;51.15;100974.84;5038665;28;45448;-67
2023/06/09 07:51:46;;;;;;;;;21.67;18.67;;;;;23.69;51.03;100975.94;5038177;28;45334;-68
2023/06/09 07:54:11;;;;;;;;;21.67;20.67;;;;;23.69;51.17;100967.00;5038236;28;45279;-67
2023/06/09 07:56:37;;;;;;;;;21.33;19.33;;;;;23.83;50.39;100950.66;5037864;28;46295;-67
2023/06/09 07:59:02;;;;;;;;;17.67;16.67;;;;;24.19;50.55;100961.47;5038318;28;45316;-67
2023/06/09 08:01:29;;;;;;;;;21.00;17.67;;;;;24.22;49.53;100950.47;5038002;28;45496;-67
2023/06/09 08:03:55;;;;;;;;;20.67;18.67;;;;;24.33;49.49;100961.28;5038061;28;45296;-67
2023/06/09 08:06:20;;;;;;;;;20.00;18.00;;;;;24.40;49.80;100957.13;5037687;28;46813;-67
2023/06/09 08:08:46;;;;;;;;;17.00;16.67;;;;;24.38;49.81;100968.97;5037796;28;45336;-67
2023/06/09 08:11:11;;;;;;;;;15.67;15.67;;;;;24.37;48.77;100961.88;5037293;28;45791;-68
2023/06/09 08:13:37;;;;;;;;;22.00;20.33;;;;;24.48;48.80;100957.34;5038093;28;45462;-67
2023/06/09 08:16:02;;;;;;;;;21.67;19.00;;;;;24.57;48.02;100957.63;5037917;28;45262;-67
2023/06/09 08:18:28;;;;;;;;;17.33;15.33;;;;;24.53;48.11;100946.25;5037661;28;45432;-67
2023/06/09 08:20:53;;;;;;;;;21.00;20.00;;;;;24.60;48.37;100968.19;5038050;28;45392;-67
2023/06/09 08:23:21;;;;;;;;;23.67;20.00;;;;;24.56;47.79;100940.63;5037757;28;45368;-67
2023/06/09 08:25:47;;;;;;;;;20.33;20.33;;;;;24.63;48.18;100941.88;5037446;28;47261;-67
2023/06/09 08:28:13;;;;;;;;;18.00;18.00;;;;;25.02;47.30;100952.28;5037500;28;45220;-67
2023/06/09 08:30:39;;;;;;;;;21.67;18.33;;;;;26.38;45.63;100951.84;5037737;28;45222;-67
2023/06/09 08:33:04;;;;;;;;;17.33;17.33;;;;;26.95;43.45;100924.41;5037688;28;45444;-67
2023/06/09 08:35:32;;;;;;;;;21.67;17.00;;;;;27.01;42.67;100938.25;5037540;28;47450;-67
2023/06/09 08:37:58;;;;;;;;;21.00;18.00;;;;;26.75;43.44;100938.69;5037464;28;45313;-66
2023/06/09 08:40:23;;;;;;;;;18.00;17.00;;;;;26.63;43.92;100942.44;5037474;28;45441;-66
2023/06/09 08:42:53;;;;;;;;;19.33;17.67;;;;;26.52;43.18;100942.53;5037891;28;45361;-67
2023/06/09 08:45:21;;;;;;;;;18.67;17.33;;;;;26.56;43.20;100941.25;5037512;28;46407;-67
2023/06/09 08:47:47;;;;;;;;;16.33;16.33;;;;;26.66;44.15;100933.22;5037379;28;45462;-66
2023/06/09 08:50:13;;;;;;;;;20.00;19.00;;;;;26.63;43.21;100933.50;5037252;28;45348;-67
2023/06/09 08:52:39;;;;;;;;;17.33;16.33;;;;;26.48;44.16;100941.94;5037610;28;45482;-67
2023/06/09 08:55:05;;;;;;;;;20.67;18.67;;;;;26.24;44.39;100932.31;5037397;28;45436;-66
2023/06/09 08:57:32;;;;;;;;;17.00;16.67;;;;;26.21;43.56;100932.56;5037248;28;45434;-66
2023/06/09 08:59:57;;;;;;;;;15.33;14.33;;;;;26.21;43.69;100921.78;5037575;28;45325;-66
2023/06/09 09:02:24;;;;;;;;;16.67;16.00;;;;;26.30;44.02;100933.63;5036810;28;45524;-67
2023/06/09 09:04:49;;;;;;;;;14.00;14.00;;;;;26.16;43.98;100891.59;5038813;28;45542;-66
2023/06/09 09:07:15;;;;;;;;;16.67;16.00;;;;;26.24;43.31;100912.53;5037112;28;45215;-66
2023/06/09 09:09:40;;;;;;;;;17.00;17.00;;;;;26.20;43.51;100930.84;5036474;28;45380;-67
2023/06/09 09:12:12;;;;;;;;;18.00;18.00;;;;;26.18;43.76;100927.41;5037436;28;45182;-67
2023/06/09 09:14:44;;;;;;;;;16.67;15.33;;;;;26.17;43.98;100936.50;5037087;28;46362;-66
2023/06/09 09:17:11;;;;;;;;;16.67;15.00;;;;;26.24;43.82;100921.50;5036853;28;45341;-67
2023/06/09 09:19:39;;;;;;;;;18.33;18.33;;;;;26.51;43.16;100927.31;5036890;28;45406;-67
2023/06/09 09:22:08;;;;;;;;;22.33;19.67;;;;;26.54;43.18;100924.34;5039447;28;45275;-66
2023/06/09 09:24:35;;;;;;;;;17.33;17.00;;;;;26.64;42.60;100933.34;5040194;28;45401;-66
2023/06/09 09:27:01;;;;;;;;;17.67;16.33;;;;;26.61;42.88;100928.22;5040205;28;45269;-66
2023/06/09 09:29:28;;;;;;;;;17.67;17.67;;;;;26.61;42.37;100922.81;5040471;28;45261;-69
2023/06/09 09:32:02;;;;;;;;;21.00;19.00;;;;;26.70;42.50;100918.50;5040580;28;45515;-67
2023/06/09 09:34:34;;;;;;;;;15.00;15.00;;;;;27.20;41.56;100921.22;5040237;28;46643;-66
2023/06/09 09:37:01;;;;;;;;;17.67;14.33;;;;;27.55;41.37;100918.97;5040191;28;45401;-67
2023/06/09 09:39:26;;;;;;;;;15.00;13.33;;;;;27.82;39.86;100915.56;5040133;28;45380;-66
2023/06/09 09:42:08;;;;;;;;;17.67;16.00;;;;;28.88;40.05;100909.22;5040452;28;45310;-67
2023/06/09 09:44:41;;;;;;;;;17.67;17.00;;;;;30.98;37.71;100895.94;5040296;28;45417;-67
2023/06/09 09:47:08;;;;;;;;;20.00;17.33;;;;;33.35;34.45;100898.56;5040053;28;45324;-66
2023/06/09 09:49:34;;;;;;;;;12.00;11.33;;;;;35.47;31.18;100895.56;5040253;28;45366;-67
2023/06/09 09:52:00;;;;;;;;;17.33;15.00;;;;;37.56;28.29;100903.97;5072586;27;45404;-67
2023/06/09 09:54:26;;;;;;;;;20.67;17.00;;;;;39.31;26.29;100902.53;5039881;28;46616;-67
2023/06/09 09:56:57;;;;;;;;;13.00;13.00;;;;;40.65;22.90;100907.72;5040072;28;45384;-66
2023/06/09 09:59:23;;;;;;;;;12.67;12.67;;;;;41.87;22.70;100914.06;5040168;28;45408;-67
2023/06/09 10:01:54;;;;;;;;;12.67;12.33;;;;;42.77;23.19;100911.09;5040131;28;45467;-67
2023/06/09 10:04:22;;;;;;;;;11.33;11.33;;;;;43.71;20.43;100900.63;5039813;28;46480;-67
2023/06/09 10:06:53;;;;;;;;;12.75;12.75;;;;;44.50;19.35;100903.22;5039827;28;45352;-67
2023/06/09 10:09:21;;;;;;;;;13.50;13.00;;;;;45.27;19.05;100900.50;5039669;27;45298;-67
2023/06/09 10:11:47;;;;;;;;;12.75;10.75;;;;;46.06;20.56;100910.03;5040255;28;45325;-67
2023/06/09 10:14:13;;;;;;;;;14.50;14.25;;;;;46.34;17.05;100898.78;5039719;28;46465;-67
2023/06/09 10:16:38;;;;;;;;;14.25;14.25;;;;;46.72;17.56;100896.72;5039606;28;45518;-68
2023/06/09 10:19:05;;;;;;;;;10.00;10.00;;;;;47.16;17.90;100901.03;5040153;28;45994;-68
2023/06/09 10:21:31;;;;;;;;;13.50;11.75;;;;;47.43;17.88;100893.25;5040112;28;45405;-69
2023/06/09 10:23:58;;;;;;;;;15.00;14.50;;;;;47.67;17.45;100884.31;5039563;28;45623;-68
2023/06/09 10:26:24;;;;;;;;;13.00;13.00;;;;;47.78;16.31;100879.56;5039522;28;45386;-70
2023/06/09 10:28:49;;;;;;;;;13.75;13.25;;;;;47.97;16.03;100877.00;5039292;28;45591;-68
2023/06/09 10:31:18;;;;;;;;;14.25;14.25;;;;;48.21;16.29;100882.00;5039940;28;45469;-69
2023/06/09 10:33:45;;;;;;;;;11.50;11.50;;;;;48.47;17.67;100885.53;5038726;28;45443;-68
2023/06/09 10:36:12;;;;;;;;;13.50;13.50;;;;;48.42;16.00;100869.59;5039454;28;45313;-69
2023/06/09 10:38:43;;;;;;;;;14.00;13.00;;;;;48.16;16.80;100868.88;5039619;28;45484;-69
2023/06/09 10:41:20;;;;;;;;;18.50;15.25;;;;;47.79;16.18;100875.66;5039448;28;45500;-68
2023/06/09 10:44:20;;;;;;;;;14.50;13.00;;;;;47.76;16.96;100879.84;5039164;28;45431;-68
2023/06/09 10:46:47;;;;;;;;;14.00;12.75;;;;;47.48;15.41;100880.41;5036964;28;45448;-69
2023/06/09 10:49:29;;;;;;;;;13.00;13.00;;;;;47.45;16.08;100870.69;5037329;28;45413;-68
2023/06/09 10:51:55;;;;;;;;;10.25;9.75;;;;;47.28;15.19;100870.91;5037290;28;45343;-68
2023/06/09 10:54:24;;;;;;;;;13.00;11.75;;;;;46.85;15.57;100865.53;5036744;28;47245;-69
2023/06/09 10:56:56;;;;;;;;;11.50;11.50;;;;;46.51;15.71;100866.00;5036771;28;45413;-68
2023/06/09 10:59:24;;;;;;;;;14.50;13.00;;;;;45.78;15.93;100863.06;5037142;28;45541;-67
2023/06/09 11:02:05;;;;;;;;;14.25;11.75;;;;;44.46;16.58;100857.63;5037015;28;45436;-68
2023/06/09 11:04:41;;;;;;;;;16.75;14.00;;;;;43.22;17.21;100854.03;5036519;28;46207;-68
2023/06/09 11:07:13;;;;;;;;;11.50;11.50;;;;;42.08;17.99;100848.97;5036789;28;45450;-67
2023/06/09 11:09:40;;;;;;;;;10.75;10.75;;;;;40.98;19.02;100839.31;5036736;28;45375;-68